sensor_id;sensor_type;location;lat;lon;timestamp;pressure;altitude;pressure_sealevel;temperature;humidity
45285;BME280;31026;43.780;25.948;2024-01-10T00:01:15;102670.22;;;16.76;60.44
45285;BME280;31026;43.780;25.948;2024-01-10T00:03:44;102690.81;;;16.74;60.90
45285;BME280;31026;43.780;25.948;2024-01-10T00:06:12;102677.94;;;17.01;59.94
45285;BME280;31026;43.780;25.948;2024-01-10T00:08:43;102667.22;;;17.37;59.07
45285;BME280;31026;43.780;25.948;2024-01-10T00:11:12;102662.34;;;17.45;58.37
45285;BME280;31026;43.780;25.948;2024-01-10T00:13:40;102666.75;;;17.29;58.87
45285;BME280;31026;43.780;25.948;2024-01-10T00:16:09;102674.31;;;17.02;59.81
45285;BME280;31026;43.780;25.948;2024-01-10T00:18:39;102681.38;;;16.85;60.16
45285;BME280;31026;43.780;25.948;2024-01-10T00:21:08;102689.22;;;16.69;60.60
45285;BME280;31026;43.780;25.948;2024-01-10T00:23:36;102691.91;;;16.69;60.80
45285;BME280;31026;43.780;25.948;2024-01-10T00:26:07;102687.16;;;17.13;59.69
45285;BME280;31026;43.780;25.948;2024-01-10T00:28:35;102675.78;;;17.44;58.74
45285;BME280;31026;43.780;25.948;2024-01-10T00:31:03;102683.09;;;17.58;58.20
45285;BME280;31026;43.780;25.948;2024-01-10T00:33:32;102672.84;;;17.66;57.72
45285;BME280;31026;43.780;25.948;2024-01-10T00:36:00;102686.47;;;17.61;57.75
45285;BME280;31026;43.780;25.948;2024-01-10T00:38:29;102681.22;;;17.25;58.91
45285;BME280;31026;43.780;25.948;2024-01-10T00:40:57;102703.06;;;16.97;59.81
45285;BME280;31026;43.780;25.948;2024-01-10T00:43:28;102698.91;;;16.91;60.07
45285;BME280;31026;43.780;25.948;2024-01-10T00:45:57;102692.22;;;16.81;60.24
45285;BME280;31026;43.780;25.948;2024-01-10T00:48:25;102695.09;;;17.14;59.09
45285;BME280;31026;43.780;25.948;2024-01-10T00:50:53;102688.13;;;17.46;58.42
45285;BME280;31026;43.780;25.948;2024-01-10T00:53:22;102682.94;;;17.26;58.69
45285;BME280;31026;43.780;25.948;2024-01-10T00:55:50;102696.63;;;17.01;59.44
45285;BME280;31026;43.780;25.948;2024-01-10T00:58:18;102700.16;;;16.84;59.91
45285;BME280;31026;43.780;25.948;2024-01-10T01:00:49;102694.56;;;16.69;60.33
45285;BME280;31026;43.780;25.948;2024-01-10T01:03:17;102670.03;;;16.61;60.63
45285;BME280;31026;43.780;25.948;2024-01-10T01:05:46;102691.94;;;17.06;59.52
45285;BME280;31026;43.780;25.948;2024-01-10T01:08:14;102671.78;;;17.35;58.70
45285;BME280;31026;43.780;25.948;2024-01-10T01:10:42;102668.78;;;17.41;58.17
45285;BME280;31026;43.780;25.948;2024-01-10T01:13:11;102675.47;;;17.15;58.78
45285;BME280;31026;43.780;25.948;2024-01-10T01:15:39;102680.22;;;16.91;59.51
45285;BME280;31026;43.780;25.948;2024-01-10T01:21:06;102673.84;;;16.56;60.51
45285;BME280;31026;43.780;25.948;2024-01-10T01:23:34;102671.81;;;16.80;59.68
45285;BME280;31026;43.780;25.948;2024-01-10T01:26:03;102673.47;;;17.19;58.75
45285;BME280;31026;43.780;25.948;2024-01-10T01:28:31;102679.16;;;17.47;58.15
45285;BME280;31026;43.780;25.948;2024-01-10T01:31:00;102663.97;;;17.30;58.44
45285;BME280;31026;43.780;25.948;2024-01-10T01:33:28;102668.34;;;16.97;59.22
45285;BME280;31026;43.780;25.948;2024-01-10T01:35:57;102670.06;;;16.79;59.67
45285;BME280;31026;43.780;25.948;2024-01-10T01:38:28;102655.59;;;16.65;60.00
45285;BME280;31026;43.780;25.948;2024-01-10T01:40:56;102670.97;;;16.60;60.41
45285;BME280;31026;43.780;25.948;2024-01-10T01:43:25;102652.41;;;16.95;59.26
45285;BME280;31026;43.780;25.948;2024-01-10T01:45:54;102647.25;;;17.27;58.53
45285;BME280;31026;43.780;25.948;2024-01-10T01:48:23;102646.59;;;17.39;58.02
45285;BME280;31026;43.780;25.948;2024-01-10T01:50:52;102653.03;;;17.18;58.47
45285;BME280;31026;43.780;25.948;2024-01-10T01:53:21;102631.16;;;16.92;59.12
45285;BME280;31026;43.780;25.948;2024-01-10T01:55:52;102654.50;;;16.69;59.74
45285;BME280;31026;43.780;25.948;2024-01-10T01:58:22;102657.59;;;16.60;60.29
45285;BME280;31026;43.780;25.948;2024-01-10T02:00:51;102660.28;;;16.60;60.27
45285;BME280;31026;43.780;25.948;2024-01-10T02:03:19;102644.94;;;17.02;59.09
45285;BME280;31026;43.780;25.948;2024-01-10T02:05:49;102650.38;;;17.35;58.33
45285;BME280;31026;43.780;25.948;2024-01-10T02:08:17;102638.25;;;17.28;58.19
45285;BME280;31026;43.780;25.948;2024-01-10T02:10:45;102626.22;;;17.02;58.77
45285;BME280;31026;43.780;25.948;2024-01-10T02:13:16;102642.41;;;16.80;59.31
45285;BME280;31026;43.780;25.948;2024-01-10T02:15:46;102647.66;;;16.64;60.03
45285;BME280;31026;43.780;25.948;2024-01-10T02:18:14;102640.13;;;16.53;60.41
45285;BME280;31026;43.780;25.948;2024-01-10T02:20:43;102635.22;;;16.82;59.71
45285;BME280;31026;43.780;25.948;2024-01-10T02:23:11;102635.25;;;17.17;58.90
45285;BME280;31026;43.780;25.948;2024-01-10T02:25:42;102631.56;;;17.37;58.14
45285;BME280;31026;43.780;25.948;2024-01-10T02:28:11;102626.38;;;17.16;58.50
45285;BME280;31026;43.780;25.948;2024-01-10T02:30:39;102633.34;;;16.84;59.48
45285;BME280;31026;43.780;25.948;2024-01-10T02:33:07;102645.47;;;16.72;60.02
45285;BME280;31026;43.780;25.948;2024-01-10T02:35:36;102633.06;;;16.52;60.30
45285;BME280;31026;43.780;25.948;2024-01-10T02:38:04;102640.56;;;16.63;60.14
45285;BME280;31026;43.780;25.948;2024-01-10T02:40:32;102631.50;;;17.03;59.25
45285;BME280;31026;43.780;25.948;2024-01-10T02:43:03;102638.72;;;17.36;58.22
45285;BME280;31026;43.780;25.948;2024-01-10T02:45:32;102632.75;;;17.31;58.13
45285;BME280;31026;43.780;25.948;2024-01-10T02:48:01;102630.84;;;16.98;58.75
45285;BME280;31026;43.780;25.948;2024-01-10T02:50:30;102619.59;;;16.73;59.58
45285;BME280;31026;43.780;25.948;2024-01-10T02:52:58;102631.91;;;16.58;60.02
45285;BME280;31026;43.780;25.948;2024-01-10T02:55:26;102632.91;;;16.55;60.18
45285;BME280;31026;43.780;25.948;2024-01-10T02:57:55;102656.84;;;16.95;59.24
45285;BME280;31026;43.780;25.948;2024-01-10T03:00:26;102643.47;;;17.31;58.46
45285;BME280;31026;43.780;25.948;2024-01-10T03:02:54;102645.97;;;17.52;57.94
45285;BME280;31026;43.780;25.948;2024-01-10T03:05:22;102628.56;;;17.60;57.22
45285;BME280;31026;43.780;25.948;2024-01-10T03:07:50;102627.88;;;17.57;57.18
45285;BME280;31026;43.780;25.948;2024-01-10T03:10:19;102621.88;;;17.52;57.22
45285;BME280;31026;43.780;25.948;2024-01-10T03:12:47;102626.53;;;17.48;57.22
45285;BME280;31026;43.780;25.948;2024-01-10T03:15:16;102622.34;;;17.42;57.25
45285;BME280;31026;43.780;25.948;2024-01-10T03:17:46;102620.41;;;17.46;57.24
45285;BME280;31026;43.780;25.948;2024-01-10T03:20:15;102628.59;;;17.43;57.36
45285;BME280;31026;43.780;25.948;2024-01-10T03:22:43;102634.00;;;17.41;57.40
45285;BME280;31026;43.780;25.948;2024-01-10T03:25:12;102630.38;;;17.42;57.51
45285;BME280;31026;43.780;25.948;2024-01-10T03:27:40;102626.91;;;17.40;57.16
45285;BME280;31026;43.780;25.948;2024-01-10T03:30:09;102622.34;;;17.42;57.37
45285;BME280;31026;43.780;25.948;2024-01-10T03:32:37;102613.88;;;17.52;57.12
45285;BME280;31026;43.780;25.948;2024-01-10T03:35:09;102624.63;;;17.50;57.04
45285;BME280;31026;43.780;25.948;2024-01-10T03:37:37;102614.00;;;17.48;57.05
45285;BME280;31026;43.780;25.948;2024-01-10T03:40:06;102606.94;;;17.47;57.08
45285;BME280;31026;43.780;25.948;2024-01-10T03:42:34;102607.09;;;17.44;57.00
45285;BME280;31026;43.780;25.948;2024-01-10T03:45:03;102592.88;;;17.44;57.24
45285;BME280;31026;43.780;25.948;2024-01-10T03:47:31;102596.56;;;17.41;57.12
45285;BME280;31026;43.780;25.948;2024-01-10T03:50:00;102596.25;;;17.47;56.92
45285;BME280;31026;43.780;25.948;2024-01-10T03:52:30;102598.66;;;17.52;56.84
45285;BME280;31026;43.780;25.948;2024-01-10T03:54:59;102600.41;;;17.53;56.72
45285;BME280;31026;43.780;25.948;2024-01-10T03:57:28;102627.31;;;17.50;56.81
45285;BME280;31026;43.780;25.948;2024-01-10T03:59:56;102605.84;;;17.52;56.76
45285;BME280;31026;43.780;25.948;2024-01-10T04:02:24;102614.94;;;17.65;56.54
45285;BME280;31026;43.780;25.948;2024-01-10T04:04:53;102621.53;;;17.93;56.10
45285;BME280;31026;43.780;25.948;2024-01-10T04:07:21;102603.13;;;18.02;55.70
45285;BME280;31026;43.780;25.948;2024-01-10T04:09:52;102612.13;;;18.01;55.72
45285;BME280;31026;43.780;25.948;2024-01-10T04:12:20;102622.22;;;17.96;56.38
45285;BME280;31026;43.780;25.948;2024-01-10T04:14:49;102617.97;;;17.92;56.33
45285;BME280;31026;43.780;25.948;2024-01-10T04:17:17;102622.53;;;17.90;56.31
45285;BME280;31026;43.780;25.948;2024-01-10T04:19:45;102622.81;;;17.85;56.41
45285;BME280;31026;43.780;25.948;2024-01-10T04:22:13;102617.44;;;17.85;56.11
45285;BME280;31026;43.780;25.948;2024-01-10T04:24:42;102631.75;;;17.84;56.34
45285;BME280;31026;43.780;25.948;2024-01-10T04:27:13;102630.94;;;18.00;56.07
45285;BME280;31026;43.780;25.948;2024-01-10T04:29:41;102630.44;;;18.09;55.79
45285;BME280;31026;43.780;25.948;2024-01-10T04:32:10;102636.50;;;18.13;55.70
45285;BME280;31026;43.780;25.948;2024-01-10T04:34:38;102632.78;;;18.15;55.94
45285;BME280;31026;43.780;25.948;2024-01-10T04:37:06;102643.00;;;18.24;55.60
45285;BME280;31026;43.780;25.948;2024-01-10T04:39:35;102629.63;;;18.24;55.39
45285;BME280;31026;43.780;25.948;2024-01-10T04:42:03;102629.78;;;18.21;55.48
45285;BME280;31026;43.780;25.948;2024-01-10T04:44:35;102628.03;;;18.20;55.48
45285;BME280;31026;43.780;25.948;2024-01-10T04:47:03;102628.91;;;18.21;55.55
45285;BME280;31026;43.780;25.948;2024-01-10T04:49:32;102630.69;;;18.04;55.86
45285;BME280;31026;43.780;25.948;2024-01-10T04:52:01;102633.91;;;17.60;56.88
45285;BME280;31026;43.780;25.948;2024-01-10T04:54:29;102633.09;;;17.25;58.14
45285;BME280;31026;43.780;25.948;2024-01-10T04:56:57;102621.03;;;17.16;58.04
45285;BME280;31026;43.780;25.948;2024-01-10T04:59:26;102621.16;;;17.65;57.25
45285;BME280;31026;43.780;25.948;2024-01-10T05:01:57;102621.56;;;18.08;56.14
45285;BME280;31026;43.780;25.948;2024-01-10T05:04:25;102618.56;;;18.31;55.39
45285;BME280;31026;43.780;25.948;2024-01-10T05:06:53;102616.13;;;18.42;55.37
45285;BME280;31026;43.780;25.948;2024-01-10T05:09:22;102616.31;;;18.23;55.39
45285;BME280;31026;43.780;25.948;2024-01-10T05:11:50;102623.59;;;17.70;56.41
45285;BME280;31026;43.780;25.948;2024-01-10T05:14:19;102635.59;;;17.28;57.37
45285;BME280;31026;43.780;25.948;2024-01-10T05:16:48;102624.38;;;17.55;56.95
45285;BME280;31026;43.780;25.948;2024-01-10T05:19:21;102631.13;;;17.97;55.92
45285;BME280;31026;43.780;25.948;2024-01-10T05:21:49;102629.06;;;18.18;55.40
45285;BME280;31026;43.780;25.948;2024-01-10T05:24:19;102633.66;;;18.32;55.04
45285;BME280;31026;43.780;25.948;2024-01-10T05:26:47;102645.00;;;18.37;54.99
45285;BME280;31026;43.780;25.948;2024-01-10T05:29:16;102613.81;;;17.86;55.78
45285;BME280;31026;43.780;25.948;2024-01-10T05:31:45;102628.66;;;17.41;56.92
45285;BME280;31026;43.780;25.948;2024-01-10T05:34:13;102630.69;;;17.36;57.16
45285;BME280;31026;43.780;25.948;2024-01-10T05:36:44;102626.81;;;17.77;56.12
45285;BME280;31026;43.780;25.948;2024-01-10T05:39:13;102620.69;;;18.08;55.27
45285;BME280;31026;43.780;25.948;2024-01-10T05:41:45;102624.06;;;18.27;54.45
45285;BME280;31026;43.780;25.948;2024-01-10T05:44:14;102646.00;;;18.34;54.64
45285;BME280;31026;43.780;25.948;2024-01-10T05:46:42;102630.78;;;18.03;55.03
45285;BME280;31026;43.780;25.948;2024-01-10T05:49:10;102646.50;;;17.58;56.07
45285;BME280;31026;43.780;25.948;2024-01-10T05:51:39;102638.25;;;17.28;56.94
45285;BME280;31026;43.780;25.948;2024-01-10T05:54:10;102620.44;;;17.62;56.01
45285;BME280;31026;43.780;25.948;2024-01-10T05:56:38;102618.69;;;17.96;55.25
45285;BME280;31026;43.780;25.948;2024-01-10T05:59:06;102643.31;;;18.18;54.83
45285;BME280;31026;43.780;25.948;2024-01-10T06:01:36;102621.66;;;18.39;54.40
45285;BME280;31026;43.780;25.948;2024-01-10T06:04:05;102630.53;;;18.23;54.45
45285;BME280;31026;43.780;25.948;2024-01-10T06:06:33;102636.03;;;17.71;55.49
45285;BME280;31026;43.780;25.948;2024-01-10T06:09:02;102629.91;;;17.34;56.65
45285;BME280;31026;43.780;25.948;2024-01-10T06:11:33;102633.22;;;17.57;56.02
45285;BME280;31026;43.780;25.948;2024-01-10T06:14:02;102644.59;;;17.95;55.14
45285;BME280;31026;43.780;25.948;2024-01-10T06:16:30;102646.69;;;18.22;54.50
45285;BME280;31026;43.780;25.948;2024-01-10T06:18:58;102653.09;;;18.19;55.16
45285;BME280;31026;43.780;25.948;2024-01-10T06:21:26;102650.09;;;17.92;55.91
45285;BME280;31026;43.780;25.948;2024-01-10T06:23:55;102653.41;;;17.97;56.13
45285;BME280;31026;43.780;25.948;2024-01-10T06:26:23;102652.34;;;18.00;56.22
45285;BME280;31026;43.780;25.948;2024-01-10T06:28:54;102659.28;;;18.04;55.90
45285;BME280;31026;43.780;25.948;2024-01-10T06:31:23;102653.34;;;18.15;55.54
45285;BME280;31026;43.780;25.948;2024-01-10T06:33:51;102665.19;;;18.11;55.71
45285;BME280;31026;43.780;25.948;2024-01-10T06:36:20;102667.06;;;18.08;55.89
45285;BME280;31026;43.780;25.948;2024-01-10T06:38:49;102664.25;;;18.43;55.27
45285;BME280;31026;43.780;25.948;2024-01-10T06:41:17;102661.41;;;18.31;55.17
45285;BME280;31026;43.780;25.948;2024-01-10T06:43:49;102658.19;;;18.40;54.96
45285;BME280;31026;43.780;25.948;2024-01-10T06:46:20;102678.50;;;18.44;53.85
45285;BME280;31026;43.780;25.948;2024-01-10T06:48:49;102668.50;;;18.63;53.51
45285;BME280;31026;43.780;25.948;2024-01-10T06:51:17;102661.06;;;18.68;53.42
45285;BME280;31026;43.780;25.948;2024-01-10T06:53:45;102661.78;;;18.72;53.27
45285;BME280;31026;43.780;25.948;2024-01-10T06:56:14;102671.13;;;18.81;53.38
45285;BME280;31026;43.780;25.948;2024-01-10T06:58:42;102660.03;;;18.87;53.12
45285;BME280;31026;43.780;25.948;2024-01-10T07:01:11;102659.69;;;18.93;53.21
45285;BME280;31026;43.780;25.948;2024-01-10T07:03:42;102646.53;;;19.04;52.83
45285;BME280;31026;43.780;25.948;2024-01-10T07:06:10;102667.38;;;18.99;52.83
45285;BME280;31026;43.780;25.948;2024-01-10T07:08:40;102660.53;;;18.78;53.79
45285;BME280;31026;43.780;25.948;2024-01-10T07:11:09;102654.75;;;18.69;54.13
45285;BME280;31026;43.780;25.948;2024-01-10T07:13:38;102659.31;;;18.67;54.09
45285;BME280;31026;43.780;25.948;2024-01-10T07:16:06;102660.38;;;18.65;54.18
45285;BME280;31026;43.780;25.948;2024-01-10T07:18:35;102658.91;;;18.59;54.52
45285;BME280;31026;43.780;25.948;2024-01-10T07:21:06;102674.56;;;18.67;54.42
45285;BME280;31026;43.780;25.948;2024-01-10T07:23:35;102685.44;;;18.64;54.46
45285;BME280;31026;43.780;25.948;2024-01-10T07:26:06;102684.59;;;18.79;54.16
45285;BME280;31026;43.780;25.948;2024-01-10T07:28:34;102667.28;;;18.69;54.25
45285;BME280;31026;43.780;25.948;2024-01-10T07:31:03;102696.34;;;18.77;54.25
45285;BME280;31026;43.780;25.948;2024-01-10T07:33:31;102678.88;;;18.69;54.43
45285;BME280;31026;43.780;25.948;2024-01-10T07:36:00;102686.16;;;18.83;54.21
45285;BME280;31026;43.780;25.948;2024-01-10T07:38:31;102689.09;;;18.95;54.18
45285;BME280;31026;43.780;25.948;2024-01-10T07:41:00;102668.34;;;18.98;53.95
45285;BME280;31026;43.780;25.948;2024-01-10T07:43:28;102676.63;;;18.94;54.03
45285;BME280;31026;43.780;25.948;2024-01-10T07:45:56;102686.34;;;18.80;54.25
45285;BME280;31026;43.780;25.948;2024-01-10T07:48:26;102678.34;;;18.79;54.38
45285;BME280;31026;43.780;25.948;2024-01-10T07:50:56;102673.88;;;18.95;54.11
45285;BME280;31026;43.780;25.948;2024-01-10T07:53:24;102684.44;;;18.98;53.90
45285;BME280;31026;43.780;25.948;2024-01-10T07:55:55;102687.53;;;18.91;53.89
45285;BME280;31026;43.780;25.948;2024-01-10T07:58:23;102690.72;;;18.97;53.84
45285;BME280;31026;43.780;25.948;2024-01-10T08:00:52;102690.13;;;19.08;53.62
45285;BME280;31026;43.780;25.948;2024-01-10T08:03:21;102689.75;;;19.14;53.42
45285;BME280;31026;43.780;25.948;2024-01-10T08:05:50;102703.25;;;19.13;53.53
45285;BME280;31026;43.780;25.948;2024-01-10T08:08:18;102693.97;;;18.88;54.22
45285;BME280;31026;43.780;25.948;2024-01-10T08:10:46;102684.16;;;18.71;54.29
45285;BME280;31026;43.780;25.948;2024-01-10T08:13:17;102695.97;;;18.35;55.64
45285;BME280;31026;43.780;25.948;2024-01-10T08:15:46;102709.03;;;18.08;56.08
45285;BME280;31026;43.780;25.948;2024-01-10T08:18:14;102705.22;;;18.12;56.03
45285;BME280;31026;43.780;25.948;2024-01-10T08:20:43;102690.00;;;18.46;55.89
45285;BME280;31026;43.780;25.948;2024-01-10T08:23:11;102691.75;;;18.63;55.76
45285;BME280;31026;43.780;25.948;2024-01-10T08:25:39;102699.44;;;18.69;55.82
45285;BME280;31026;43.780;25.948;2024-01-10T08:28:09;102690.66;;;18.99;54.84
45285;BME280;31026;43.780;25.948;2024-01-10T08:30:41;102694.75;;;19.20;54.19
45285;BME280;31026;43.780;25.948;2024-01-10T08:33:09;102681.88;;;19.41;53.93
45285;BME280;31026;43.780;25.948;2024-01-10T08:35:37;102688.19;;;19.26;54.17
45285;BME280;31026;43.780;25.948;2024-01-10T08:38:08;102682.31;;;19.03;54.46
45285;BME280;31026;43.780;25.948;2024-01-10T08:40:36;102690.53;;;19.16;54.47
45285;BME280;31026;43.780;25.948;2024-01-10T08:43:04;102598.84;;;18.32;54.76
45285;BME280;31026;43.780;25.948;2024-01-10T08:45:33;102709.94;;;18.90;54.96
45285;BME280;31026;43.780;25.948;2024-01-10T08:48:04;102694.72;;;18.90;54.94
45285;BME280;31026;43.780;25.948;2024-01-10T08:50:32;102698.97;;;18.94;54.98
45285;BME280;31026;43.780;25.948;2024-01-10T08:53:02;102691.41;;;19.01;54.79
45285;BME280;31026;43.780;25.948;2024-01-10T08:55:30;102693.53;;;19.26;54.32
45285;BME280;31026;43.780;25.948;2024-01-10T08:58:02;102688.50;;;19.20;54.41
45285;BME280;31026;43.780;25.948;2024-01-10T09:00:30;102700.06;;;19.06;54.70
45285;BME280;31026;43.780;25.948;2024-01-10T09:02:59;102682.97;;;19.23;54.35
45285;BME280;31026;43.780;25.948;2024-01-10T09:05:30;102681.06;;;19.25;54.29
45285;BME280;31026;43.780;25.948;2024-01-10T09:07:58;102695.97;;;19.15;54.60
45285;BME280;31026;43.780;25.948;2024-01-10T09:10:28;102689.59;;;19.01;54.93
45285;BME280;31026;43.780;25.948;2024-01-10T09:15:25;102677.28;;;19.13;54.76
45285;BME280;31026;43.780;25.948;2024-01-10T09:17:53;102678.63;;;19.36;54.44
45285;BME280;31026;43.780;25.948;2024-01-10T09:20:22;102678.09;;;19.30;54.12
45285;BME280;31026;43.780;25.948;2024-01-10T09:22:53;102612.75;;;18.54;54.86
45285;BME280;31026;43.780;25.948;2024-01-10T09:25:21;102663.31;;;19.38;54.33
45285;BME280;31026;43.780;25.948;2024-01-10T09:27:50;102659.84;;;19.36;54.22
45285;BME280;31026;43.780;25.948;2024-01-10T09:30:18;102653.03;;;19.31;54.36
45285;BME280;31026;43.780;25.948;2024-01-10T09:32:46;102658.34;;;19.46;54.11
45285;BME280;31026;43.780;25.948;2024-01-10T09:35:15;102652.31;;;19.57;53.96
45285;BME280;31026;43.780;25.948;2024-01-10T09:37:43;102655.50;;;19.64;53.89
45285;BME280;31026;43.780;25.948;2024-01-10T09:40:16;102649.50;;;19.75;53.79
45285;BME280;31026;43.780;25.948;2024-01-10T09:42:46;102639.72;;;19.74;53.62
45285;BME280;31026;43.780;25.948;2024-01-10T09:45:17;102641.31;;;19.62;54.20
45285;BME280;31026;43.780;25.948;2024-01-10T09:47:48;102648.66;;;19.44;54.63
45285;BME280;31026;43.780;25.948;2024-01-10T09:50:16;102647.38;;;19.35;54.89
45285;BME280;31026;43.780;25.948;2024-01-10T09:52:46;102645.38;;;19.39;54.72
45285;BME280;31026;43.780;25.948;2024-01-10T09:55:20;102641.06;;;19.36;54.81
45285;BME280;31026;43.780;25.948;2024-01-10T09:57:49;102640.88;;;19.39;54.70
45285;BME280;31026;43.780;25.948;2024-01-10T10:00:17;102642.22;;;19.46;54.63
45285;BME280;31026;43.780;25.948;2024-01-10T10:02:46;102622.00;;;19.41;54.99
45285;BME280;31026;43.780;25.948;2024-01-10T10:05:16;102625.75;;;19.53;54.41
45285;BME280;31026;43.780;25.948;2024-01-10T10:07:45;102622.03;;;19.55;54.29
45285;BME280;31026;43.780;25.948;2024-01-10T10:10:14;102623.81;;;19.26;55.02
45285;BME280;31026;43.780;25.948;2024-01-10T10:12:45;102609.41;;;19.27;55.08
45285;BME280;31026;43.780;25.948;2024-01-10T10:15:14;102625.34;;;19.30;55.27
45285;BME280;31026;43.780;25.948;2024-01-10T10:17:44;102619.78;;;19.47;54.56
45285;BME280;31026;43.780;25.948;2024-01-10T10:20:19;102613.66;;;19.45;54.73
45285;BME280;31026;43.780;25.948;2024-01-10T10:23:00;102619.41;;;19.39;54.72
45285;BME280;31026;43.780;25.948;2024-01-10T10:25:29;102639.41;;;19.34;55.04
45285;BME280;31026;43.780;25.948;2024-01-10T10:28:02;102599.47;;;19.43;54.90
45285;BME280;31026;43.780;25.948;2024-01-10T10:30:31;102592.25;;;19.60;54.25
45285;BME280;31026;43.780;25.948;2024-01-10T10:33:00;102601.78;;;19.35;55.14
45285;BME280;31026;43.780;25.948;2024-01-10T10:35:29;102592.56;;;19.25;55.55
45285;BME280;31026;43.780;25.948;2024-01-10T10:37:57;102602.44;;;19.39;55.08
45285;BME280;31026;43.780;25.948;2024-01-10T10:40:26;102595.09;;;19.57;54.60
45285;BME280;31026;43.780;25.948;2024-01-10T10:42:55;102577.16;;;19.43;54.75
45285;BME280;31026;43.780;25.948;2024-01-10T10:45:27;102567.28;;;19.43;54.82
45285;BME280;31026;43.780;25.948;2024-01-10T10:47:56;102579.16;;;19.39;54.31
45285;BME280;31026;43.780;25.948;2024-01-10T10:50:27;102559.16;;;19.45;55.07
45285;BME280;31026;43.780;25.948;2024-01-10T10:52:56;102573.03;;;19.37;55.44
45285;BME280;31026;43.780;25.948;2024-01-10T10:55:25;102565.97;;;19.36;55.66
45285;BME280;31026;43.780;25.948;2024-01-10T10:57:54;102563.19;;;19.38;55.82
45285;BME280;31026;43.780;25.948;2024-01-10T11:00:23;102562.38;;;19.36;55.64
45285;BME280;31026;43.780;25.948;2024-01-10T11:02:55;102560.59;;;19.36;56.11
45285;BME280;31026;43.780;25.948;2024-01-10T11:05:24;102553.31;;;19.38;56.22
45285;BME280;31026;43.780;25.948;2024-01-10T11:07:52;102555.09;;;19.23;56.46
45285;BME280;31026;43.780;25.948;2024-01-10T11:10:23;102553.31;;;19.24;56.76
45285;BME280;31026;43.780;25.948;2024-01-10T11:15:55;102548.88;;;19.23;55.94
45285;BME280;31026;43.780;25.948;2024-01-10T11:18:37;102539.22;;;19.35;54.81
45285;BME280;31026;43.780;25.948;2024-01-10T11:21:16;102533.16;;;19.17;54.70
45285;BME280;31026;43.780;25.948;2024-01-10T11:23:50;102539.75;;;19.11;53.43
45285;BME280;31026;43.780;25.948;2024-01-10T11:26:19;102530.94;;;19.09;53.95
45285;BME280;31026;43.780;25.948;2024-01-10T11:28:48;102524.13;;;19.03;54.41
45285;BME280;31026;43.780;25.948;2024-01-10T11:31:18;102526.81;;;19.18;54.35
45285;BME280;31026;43.780;25.948;2024-01-10T11:33:58;102520.81;;;19.14;54.40
45285;BME280;31026;43.780;25.948;2024-01-10T11:36:26;102511.50;;;19.05;54.36
45285;BME280;31026;43.780;25.948;2024-01-10T11:38:58;102520.91;;;19.13;54.24
45285;BME280;31026;43.780;25.948;2024-01-10T11:41:28;102519.06;;;19.27;54.10
45285;BME280;31026;43.780;25.948;2024-01-10T11:46:48;102507.31;;;19.30;54.08
45285;BME280;31026;43.780;25.948;2024-01-10T11:49:20;102504.34;;;19.35;54.03
45285;BME280;31026;43.780;25.948;2024-01-10T11:51:50;102502.81;;;19.31;53.83
45285;BME280;31026;43.780;25.948;2024-01-10T11:57:01;102493.03;;;19.15;54.54
45285;BME280;31026;43.780;25.948;2024-01-10T11:59:29;102497.53;;;19.15;54.40
45285;BME280;31026;43.780;25.948;2024-01-10T12:01:55;102497.81;;;19.24;54.09
45285;BME280;31026;43.780;25.948;2024-01-10T12:04:26;102498.50;;;19.42;53.65
45285;BME280;31026;43.780;25.948;2024-01-10T12:06:55;102500.22;;;19.43;53.60
45285;BME280;31026;43.780;25.948;2024-01-10T12:09:24;102503.28;;;19.37;53.94
45285;BME280;31026;43.780;25.948;2024-01-10T12:11:52;102496.66;;;19.43;53.67
45285;BME280;31026;43.780;25.948;2024-01-10T12:14:21;102489.41;;;19.31;54.02
45285;BME280;31026;43.780;25.948;2024-01-10T12:16:50;102484.97;;;19.30;54.17
45285;BME280;31026;43.780;25.948;2024-01-10T12:19:19;102483.56;;;19.24;54.19
45285;BME280;31026;43.780;25.948;2024-01-10T12:21:50;102499.44;;;19.13;54.58
45285;BME280;31026;43.780;25.948;2024-01-10T12:24:19;102362.41;;;18.44;54.23
45285;BME280;31026;43.780;25.948;2024-01-10T12:26:48;102488.72;;;19.27;54.29
45285;BME280;31026;43.780;25.948;2024-01-10T12:29:17;102485.75;;;19.17;53.96
45285;BME280;31026;43.780;25.948;2024-01-10T12:31:46;102489.19;;;19.05;52.18
45285;BME280;31026;43.780;25.948;2024-01-10T12:34:15;102487.34;;;19.05;52.74
45285;BME280;31026;43.780;25.948;2024-01-10T12:36:43;102485.94;;;19.28;52.67
45285;BME280;31026;43.780;25.948;2024-01-10T12:39:15;102473.59;;;19.26;52.85
45285;BME280;31026;43.780;25.948;2024-01-10T12:41:43;102474.06;;;19.04;53.53
45285;BME280;31026;43.780;25.948;2024-01-10T12:44:11;102473.00;;;19.06;53.66
45285;BME280;31026;43.780;25.948;2024-01-10T12:46:49;102474.34;;;19.14;53.44
45285;BME280;31026;43.780;25.948;2024-01-10T12:49:19;102477.03;;;19.14;53.54
45285;BME280;31026;43.780;25.948;2024-01-10T12:51:47;102471.94;;;19.23;53.28
45285;BME280;31026;43.780;25.948;2024-01-10T12:54:18;102468.88;;;19.30;52.80
45285;BME280;31026;43.780;25.948;2024-01-10T12:56:46;102478.16;;;19.10;53.74
45285;BME280;31026;43.780;25.948;2024-01-10T12:59:15;102464.75;;;19.10;54.02
45285;BME280;31026;43.780;25.948;2024-01-10T13:01:43;102466.03;;;19.33;53.60
45285;BME280;31026;43.780;25.948;2024-01-10T13:04:12;102476.81;;;19.45;53.36